sensor_id;sensor_type;location;lat;lon;timestamp;temperature;humidity
15359;DHT22;7779;49.596;11.070;2024-01-11T00:00:05;-5.30;56.40
15359;DHT22;7779;49.596;11.070;2024-01-11T00:02:32;-5.40;56.20
15359;DHT22;7779;49.596;11.070;2024-01-11T00:04:57;-5.40;56.20
15359;DHT22;7779;49.596;11.070;2024-01-11T00:07:23;-5.40;56.70
15359;DHT22;7779;49.596;11.070;2024-01-11T00:09:49;-5.40;56.30
15359;DHT22;7779;49.596;11.070;2024-01-11T00:12:14;-5.50;56.20
15359;DHT22;7779;49.596;11.070;2024-01-11T00:14:41;-5.50;56.20
15359;DHT22;7779;49.596;11.070;2024-01-11T00:17:06;-5.50;56.70
15359;DHT22;7779;49.596;11.070;2024-01-11T00:19:32;-5.50;56.20
15359;DHT22;7779;49.596;11.070;2024-01-11T00:21:58;-5.50;56.20
15359;DHT22;7779;49.596;11.070;2024-01-11T00:24:24;-5.60;56.20
15359;DHT22;7779;49.596;11.070;2024-01-11T00:26:49;-5.60;56.10
15359;DHT22;7779;49.596;11.070;2024-01-11T00:29:15;-5.60;56.30
15359;DHT22;7779;49.596;11.070;2024-01-11T00:31:41;-5.60;56.30
15359;DHT22;7779;49.596;11.070;2024-01-11T00:34:06;-5.60;56.30
15359;DHT22;7779;49.596;11.070;2024-01-11T00:36:32;-5.70;56.30
15359;DHT22;7779;49.596;11.070;2024-01-11T00:38:58;-5.70;55.90
15359;DHT22;7779;49.596;11.070;2024-01-11T00:41:25;-5.70;56.30
15359;DHT22;7779;49.596;11.070;2024-01-11T00:43:50;-5.70;56.30
15359;DHT22;7779;49.596;11.070;2024-01-11T00:46:16;-5.70;56.30
15359;DHT22;7779;49.596;11.070;2024-01-11T00:48:42;-5.70;56.40
15359;DHT22;7779;49.596;11.070;2024-01-11T00:51:07;-5.80;56.30
15359;DHT22;7779;49.596;11.070;2024-01-11T00:53:33;-5.80;56.30
15359;DHT22;7779;49.596;11.070;2024-01-11T00:56:02;-5.80;56.30
15359;DHT22;7779;49.596;11.070;2024-01-11T00:58:28;-5.80;56.40
15359;DHT22;7779;49.596;11.070;2024-01-11T01:00:55;-5.90;56.30
15359;DHT22;7779;49.596;11.070;2024-01-11T01:03:23;-5.90;56.30
15359;DHT22;7779;49.596;11.070;2024-01-11T01:05:49;-5.90;56.30
15359;DHT22;7779;49.596;11.070;2024-01-11T01:08:15;-5.90;56.30
15359;DHT22;7779;49.596;11.070;2024-01-11T01:10:40;-5.90;56.40
15359;DHT22;7779;49.596;11.070;2024-01-11T01:13:06;-5.90;56.40
15359;DHT22;7779;49.596;11.070;2024-01-11T01:15:32;-6.00;56.30
15359;DHT22;7779;49.596;11.070;2024-01-11T01:17:58;-6.00;56.30
15359;DHT22;7779;49.596;11.070;2024-01-11T01:20:23;-6.00;56.30
15359;DHT22;7779;49.596;11.070;2024-01-11T01:22:49;-6.00;56.30
15359;DHT22;7779;49.596;11.070;2024-01-11T01:25:15;-6.10;56.30
15359;DHT22;7779;49.596;11.070;2024-01-11T01:27:41;-6.10;56.80
15359;DHT22;7779;49.596;11.070;2024-01-11T01:30:07;-6.10;56.50
15359;DHT22;7779;49.596;11.070;2024-01-11T01:32:34;-6.10;56.40
15359;DHT22;7779;49.596;11.070;2024-01-11T01:35:00;-6.10;56.50
15359;DHT22;7779;49.596;11.070;2024-01-11T01:37:25;-6.10;56.50
15359;DHT22;7779;49.596;11.070;2024-01-11T01:39:51;-6.10;56.50
15359;DHT22;7779;49.596;11.070;2024-01-11T01:42:17;-6.10;56.50
15359;DHT22;7779;49.596;11.070;2024-01-11T01:44:43;-6.10;56.50
15359;DHT22;7779;49.596;11.070;2024-01-11T01:47:10;-6.10;56.50
15359;DHT22;7779;49.596;11.070;2024-01-11T01:49:37;-6.20;56.50
15359;DHT22;7779;49.596;11.070;2024-01-11T01:52:05;-6.20;56.70
15359;DHT22;7779;49.596;11.070;2024-01-11T01:54:33;-6.20;56.50
15359;DHT22;7779;49.596;11.070;2024-01-11T01:56:59;-6.20;56.50
15359;DHT22;7779;49.596;11.070;2024-01-11T01:59:27;-6.20;56.50
15359;DHT22;7779;49.596;11.070;2024-01-11T02:01:56;-6.20;56.50
15359;DHT22;7779;49.596;11.070;2024-01-11T02:04:22;-6.20;56.50
15359;DHT22;7779;49.596;11.070;2024-01-11T02:06:48;-6.20;56.50
15359;DHT22;7779;49.596;11.070;2024-01-11T02:09:17;-6.30;56.40
15359;DHT22;7779;49.596;11.070;2024-01-11T02:11:44;-6.30;56.40
15359;DHT22;7779;49.596;11.070;2024-01-11T02:14:10;-6.30;56.40
15359;DHT22;7779;49.596;11.070;2024-01-11T02:16:37;-6.30;56.40
15359;DHT22;7779;49.596;11.070;2024-01-11T02:19:05;-6.30;56.50
15359;DHT22;7779;49.596;11.070;2024-01-11T02:21:33;-6.30;56.50
15359;DHT22;7779;49.596;11.070;2024-01-11T02:24:06;-6.30;56.50
15359;DHT22;7779;49.596;11.070;2024-01-11T02:26:33;-6.40;56.50
15359;DHT22;7779;49.596;11.070;2024-01-11T02:28:59;-6.40;56.50
15359;DHT22;7779;49.596;11.070;2024-01-11T02:31:25;-6.40;56.50
15359;DHT22;7779;49.596;11.070;2024-01-11T02:33:52;-6.40;56.50
15359;DHT22;7779;49.596;11.070;2024-01-11T02:36:20;-6.40;56.50
15359;DHT22;7779;49.596;11.070;2024-01-11T02:38:47;-6.40;56.50
15359;DHT22;7779;49.596;11.070;2024-01-11T02:41:16;-6.40;56.50
15359;DHT22;7779;49.596;11.070;2024-01-11T02:43:48;-6.40;56.50
15359;DHT22;7779;49.596;11.070;2024-01-11T02:46:17;-6.50;56.40
15359;DHT22;7779;49.596;11.070;2024-01-11T02:48:43;-6.50;56.40
15359;DHT22;7779;49.596;11.070;2024-01-11T02:51:09;-6.50;56.40
15359;DHT22;7779;49.596;11.070;2024-01-11T02:53:34;-6.50;56.40
15359;DHT22;7779;49.596;11.070;2024-01-11T02:56:01;-6.50;56.40
15359;DHT22;7779;49.596;11.070;2024-01-11T02:58:27;-6.50;56.40
15359;DHT22;7779;49.596;11.070;2024-01-11T03:00:52;-6.60;56.90
15359;DHT22;7779;49.596;11.070;2024-01-11T03:03:18;-6.60;56.40
15359;DHT22;7779;49.596;11.070;2024-01-11T03:05:44;-6.60;56.40
15359;DHT22;7779;49.596;11.070;2024-01-11T03:08:10;-6.60;56.40
15359;DHT22;7779;49.596;11.070;2024-01-11T03:10:37;-6.60;56.40
15359;DHT22;7779;49.596;11.070;2024-01-11T03:13:07;-6.60;56.40
15359;DHT22;7779;49.596;11.070;2024-01-11T03:15:33;-6.70;56.40
15359;DHT22;7779;49.596;11.070;2024-01-11T03:17:59;-6.70;56.40
15359;DHT22;7779;49.596;11.070;2024-01-11T03:20:24;-6.70;56.90
15359;DHT22;7779;49.596;11.070;2024-01-11T03:22:51;-6.70;56.40
15359;DHT22;7779;49.596;11.070;2024-01-11T03:25:18;-6.70;56.50
15359;DHT22;7779;49.596;11.070;2024-01-11T03:27:44;-6.70;56.40
15359;DHT22;7779;49.596;11.070;2024-01-11T03:30:10;-6.70;56.50
15359;DHT22;7779;49.596;11.070;2024-01-11T03:32:36;-6.80;56.40
15359;DHT22;7779;49.596;11.070;2024-01-11T03:35:02;-6.80;56.40
15359;DHT22;7779;49.596;11.070;2024-01-11T03:37:28;-6.80;56.40
15359;DHT22;7779;49.596;11.070;2024-01-11T03:39:54;-6.80;56.40
15359;DHT22;7779;49.596;11.070;2024-01-11T03:42:19;-6.80;56.40
15359;DHT22;7779;49.596;11.070;2024-01-11T03:44:45;-6.90;56.40
15359;DHT22;7779;49.596;11.070;2024-01-11T03:47:11;-6.80;56.50
15359;DHT22;7779;49.596;11.070;2024-01-11T03:49:36;-6.90;56.40
15359;DHT22;7779;49.596;11.070;2024-01-11T03:52:02;-6.90;56.40
15359;DHT22;7779;49.596;11.070;2024-01-11T03:54:28;-6.90;56.40
15359;DHT22;7779;49.596;11.070;2024-01-11T03:56:53;-6.90;56.40
15359;DHT22;7779;49.596;11.070;2024-01-11T03:59:19;-7.00;56.40
15359;DHT22;7779;49.596;11.070;2024-01-11T04:01:45;-7.00;56.50
15359;DHT22;7779;49.596;11.070;2024-01-11T04:04:11;-7.00;56.60
15359;DHT22;7779;49.596;11.070;2024-01-11T04:06:37;-7.00;57.10
15359;DHT22;7779;49.596;11.070;2024-01-11T04:09:03;-7.00;56.60
15359;DHT22;7779;49.596;11.070;2024-01-11T04:11:29;-7.00;56.60
15359;DHT22;7779;49.596;11.070;2024-01-11T04:13:55;-7.00;56.60
15359;DHT22;7779;49.596;11.070;2024-01-11T04:16:21;-7.00;56.60
15359;DHT22;7779;49.596;11.070;2024-01-11T04:18:47;-7.00;56.30
15359;DHT22;7779;49.596;11.070;2024-01-11T04:21:23;-7.00;56.60
15359;DHT22;7779;49.596;11.070;2024-01-11T04:23:50;-7.00;56.60
15359;DHT22;7779;49.596;11.070;2024-01-11T04:26:17;-7.00;56.50
15359;DHT22;7779;49.596;11.070;2024-01-11T04:28:47;-7.00;56.50
15359;DHT22;7779;49.596;11.070;2024-01-11T04:31:14;-7.00;56.50
15359;DHT22;7779;49.596;11.070;2024-01-11T04:33:41;-7.00;56.50
15359;DHT22;7779;49.596;11.070;2024-01-11T04:36:08;-7.00;56.50
15359;DHT22;7779;49.596;11.070;2024-01-11T04:38:34;-7.10;56.40
15359;DHT22;7779;49.596;11.070;2024-01-11T04:41:00;-7.10;56.40
15359;DHT22;7779;49.596;11.070;2024-01-11T04:43:26;-7.10;56.40
15359;DHT22;7779;49.596;11.070;2024-01-11T04:45:52;-7.10;56.30
15359;DHT22;7779;49.596;11.070;2024-01-11T04:48:17;-7.20;56.30
15359;DHT22;7779;49.596;11.070;2024-01-11T04:50:44;-7.20;56.30
15359;DHT22;7779;49.596;11.070;2024-01-11T04:53:10;-7.20;56.40
15359;DHT22;7779;49.596;11.070;2024-01-11T04:55:36;-7.20;56.40
15359;DHT22;7779;49.596;11.070;2024-01-11T04:58:02;-7.20;56.40
15359;DHT22;7779;49.596;11.070;2024-01-11T05:00:28;-7.20;56.40
15359;DHT22;7779;49.596;11.070;2024-01-11T05:02:55;-7.20;56.50
15359;DHT22;7779;49.596;11.070;2024-01-11T05:05:20;-7.30;56.40
15359;DHT22;7779;49.596;11.070;2024-01-11T05:07:46;-7.30;56.40
15359;DHT22;7779;49.596;11.070;2024-01-11T05:10:12;-7.30;56.40
15359;DHT22;7779;49.596;11.070;2024-01-11T05:12:38;-7.30;56.50
15359;DHT22;7779;49.596;11.070;2024-01-11T05:15:05;-7.30;56.50
15359;DHT22;7779;49.596;11.070;2024-01-11T05:17:33;-7.30;56.50
15359;DHT22;7779;49.596;11.070;2024-01-11T05:19:59;-7.40;56.40
15359;DHT22;7779;49.596;11.070;2024-01-11T05:22:24;-7.40;56.50
15359;DHT22;7779;49.596;11.070;2024-01-11T05:24:50;-7.40;56.50
15359;DHT22;7779;49.596;11.070;2024-01-11T05:27:16;-7.40;56.60
15359;DHT22;7779;49.596;11.070;2024-01-11T05:29:41;-7.40;56.60
15359;DHT22;7779;49.596;11.070;2024-01-11T05:32:07;-7.40;56.60
15359;DHT22;7779;49.596;11.070;2024-01-11T05:34:33;-7.40;57.20
15359;DHT22;7779;49.596;11.070;2024-01-11T05:36:59;-7.40;56.60
15359;DHT22;7779;49.596;11.070;2024-01-11T05:39:24;-7.40;56.60
15359;DHT22;7779;49.596;11.070;2024-01-11T05:41:50;-7.40;56.50
15359;DHT22;7779;49.596;11.070;2024-01-11T05:44:16;-7.50;56.50
15359;DHT22;7779;49.596;11.070;2024-01-11T05:46:41;-7.40;56.60
15359;DHT22;7779;49.596;11.070;2024-01-11T05:49:07;-7.50;56.50
15359;DHT22;7779;49.596;11.070;2024-01-11T05:51:33;-7.50;56.60
15359;DHT22;7779;49.596;11.070;2024-01-11T05:53:59;-7.50;56.60
15359;DHT22;7779;49.596;11.070;2024-01-11T05:56:25;-7.50;56.60
15359;DHT22;7779;49.596;11.070;2024-01-11T05:58:50;-7.50;56.60
15359;DHT22;7779;49.596;11.070;2024-01-11T06:01:16;-7.50;56.60
15359;DHT22;7779;49.596;11.070;2024-01-11T06:03:42;-7.50;56.60
15359;DHT22;7779;49.596;11.070;2024-01-11T06:06:08;-7.50;56.70
15359;DHT22;7779;49.596;11.070;2024-01-11T06:08:34;-7.50;56.70
15359;DHT22;7779;49.596;11.070;2024-01-11T06:10:59;-7.50;56.70
15359;DHT22;7779;49.596;11.070;2024-01-11T06:13:25;-7.50;56.70
15359;DHT22;7779;49.596;11.070;2024-01-11T06:15:51;-7.50;56.70
15359;DHT22;7779;49.596;11.070;2024-01-11T06:18:17;-7.50;56.70
15359;DHT22;7779;49.596;11.070;2024-01-11T06:20:43;-7.50;56.70
15359;DHT22;7779;49.596;11.070;2024-01-11T06:23:09;-7.50;56.70
15359;DHT22;7779;49.596;11.070;2024-01-11T06:25:34;-7.50;56.70
15359;DHT22;7779;49.596;11.070;2024-01-11T06:28:02;-7.50;56.90
15359;DHT22;7779;49.596;11.070;2024-01-11T06:30:29;-7.50;56.70
15359;DHT22;7779;49.596;11.070;2024-01-11T06:32:55;-7.50;56.70
15359;DHT22;7779;49.596;11.070;2024-01-11T06:35:20;-7.50;56.70
15359;DHT22;7779;49.596;11.070;2024-01-11T06:37:46;-7.50;56.60
15359;DHT22;7779;49.596;11.070;2024-01-11T06:40:12;-7.50;56.60
15359;DHT22;7779;49.596;11.070;2024-01-11T06:42:38;-7.60;56.60
15359;DHT22;7779;49.596;11.070;2024-01-11T06:45:03;-7.60;56.50
15359;DHT22;7779;49.596;11.070;2024-01-11T06:47:29;-7.60;56.50
15359;DHT22;7779;49.596;11.070;2024-01-11T06:49:55;-7.60;56.50
15359;DHT22;7779;49.596;11.070;2024-01-11T06:52:21;-7.60;56.50
15359;DHT22;7779;49.596;11.070;2024-01-11T06:54:46;-7.60;56.50
15359;DHT22;7779;49.596;11.070;2024-01-11T06:57:12;-7.70;56.40
15359;DHT22;7779;49.596;11.070;2024-01-11T06:59:38;-7.70;56.40
15359;DHT22;7779;49.596;11.070;2024-01-11T07:02:04;-7.70;56.40
15359;DHT22;7779;49.596;11.070;2024-01-11T07:04:29;-7.70;56.40
15359;DHT22;7779;49.596;11.070;2024-01-11T07:06:55;-7.80;56.30
15359;DHT22;7779;49.596;11.070;2024-01-11T07:09:21;-7.80;56.30
15359;DHT22;7779;49.596;11.070;2024-01-11T07:11:46;-7.80;56.40
15359;DHT22;7779;49.596;11.070;2024-01-11T07:14:12;-7.80;56.40
15359;DHT22;7779;49.596;11.070;2024-01-11T07:16:38;-7.80;56.40
15359;DHT22;7779;49.596;11.070;2024-01-11T07:19:03;-7.80;56.40
15359;DHT22;7779;49.596;11.070;2024-01-11T07:21:29;-7.80;56.40
15359;DHT22;7779;49.596;11.070;2024-01-11T07:23:57;-7.90;56.40
15359;DHT22;7779;49.596;11.070;2024-01-11T07:26:24;-7.90;56.40
15359;DHT22;7779;49.596;11.070;2024-01-11T07:28:50;-7.90;56.40
15359;DHT22;7779;49.596;11.070;2024-01-11T07:31:16;-7.90;56.40
15359;DHT22;7779;49.596;11.070;2024-01-11T07:33:42;-7.90;56.50
15359;DHT22;7779;49.596;11.070;2024-01-11T07:36:08;-7.90;56.60
15359;DHT22;7779;49.596;11.070;2024-01-11T07:38:34;-7.90;56.60
15359;DHT22;7779;49.596;11.070;2024-01-11T07:41:00;-7.90;56.60
15359;DHT22;7779;49.596;11.070;2024-01-11T07:43:27;-7.90;56.70
15359;DHT22;7779;49.596;11.070;2024-01-11T07:45:54;-7.90;56.70
15359;DHT22;7779;49.596;11.070;2024-01-11T07:48:22;-7.80;56.80
15359;DHT22;7779;49.596;11.070;2024-01-11T07:50:50;-7.80;56.90
15359;DHT22;7779;49.596;11.070;2024-01-11T07:53:16;-7.80;56.90
15359;DHT22;7779;49.596;11.070;2024-01-11T07:55:42;-7.80;57.00
15359;DHT22;7779;49.596;11.070;2024-01-11T07:58:08;-7.80;57.00
15359;DHT22;7779;49.596;11.070;2024-01-11T08:00:34;-7.70;57.10
15359;DHT22;7779;49.596;11.070;2024-01-11T08:03:00;-7.70;57.10
15359;DHT22;7779;49.596;11.070;2024-01-11T08:05:25;-7.70;57.10
15359;DHT22;7779;49.596;11.070;2024-01-11T08:07:51;-7.60;57.20
15359;DHT22;7779;49.596;11.070;2024-01-11T08:10:17;-7.60;57.20
15359;DHT22;7779;49.596;11.070;2024-01-11T08:12:43;-7.50;57.30
15359;DHT22;7779;49.596;11.070;2024-01-11T08:15:09;-7.50;57.30
15359;DHT22;7779;49.596;11.070;2024-01-11T08:17:44;-7.40;57.40
15359;DHT22;7779;49.596;11.070;2024-01-11T08:20:11;-7.40;57.50
15359;DHT22;7779;49.596;11.070;2024-01-11T08:22:46;-7.30;57.50
15359;DHT22;7779;49.596;11.070;2024-01-11T08:25:12;-7.30;57.50
15359;DHT22;7779;49.596;11.070;2024-01-11T08:27:39;-7.20;57.70
15359;DHT22;7779;49.596;11.070;2024-01-11T08:30:05;-7.20;57.70
15359;DHT22;7779;49.596;11.070;2024-01-11T08:32:31;-7.10;57.80
15359;DHT22;7779;49.596;11.070;2024-01-11T08:34:57;-7.00;57.90
15359;DHT22;7779;49.596;11.070;2024-01-11T08:37:23;-6.80;58.40
15359;DHT22;7779;49.596;11.070;2024-01-11T08:39:49;-6.80;58.10
15359;DHT22;7779;49.596;11.070;2024-01-11T08:42:15;-6.70;58.20
15359;DHT22;7779;49.596;11.070;2024-01-11T08:44:42;-6.70;58.20
15359;DHT22;7779;49.596;11.070;2024-01-11T08:47:08;-6.50;58.60
15359;DHT22;7779;49.596;11.070;2024-01-11T08:49:41;-6.50;58.40
15359;DHT22;7779;49.596;11.070;2024-01-11T08:52:07;-6.40;58.50
15359;DHT22;7779;49.596;11.070;2024-01-11T08:54:33;-6.30;58.50
15359;DHT22;7779;49.596;11.070;2024-01-11T08:56:59;-6.20;58.60
15359;DHT22;7779;49.596;11.070;2024-01-11T08:59:25;-6.10;58.70
15359;DHT22;7779;49.596;11.070;2024-01-11T09:01:52;-6.00;58.70
15359;DHT22;7779;49.596;11.070;2024-01-11T09:04:18;-5.80;58.90
15359;DHT22;7779;49.596;11.070;2024-01-11T09:06:44;-5.70;58.90
15359;DHT22;7779;49.596;11.070;2024-01-11T09:09:11;-5.60;59.10
15359;DHT22;7779;49.596;11.070;2024-01-11T09:11:39;-5.40;59.30
15359;DHT22;7779;49.596;11.070;2024-01-11T09:14:08;-5.30;59.50
15359;DHT22;7779;49.596;11.070;2024-01-11T09:16:38;-5.20;59.50
15359;DHT22;7779;49.596;11.070;2024-01-11T09:19:05;-5.00;59.60
15359;DHT22;7779;49.596;11.070;2024-01-11T09:21:31;-4.90;59.70
15359;DHT22;7779;49.596;11.070;2024-01-11T09:23:57;-4.70;59.80
15359;DHT22;7779;49.596;11.070;2024-01-11T09:26:23;-4.60;59.80
15359;DHT22;7779;49.596;11.070;2024-01-11T09:28:49;-4.40;59.90
15359;DHT22;7779;49.596;11.070;2024-01-11T09:31:14;-4.30;59.90
15359;DHT22;7779;49.596;11.070;2024-01-11T09:33:40;-4.20;59.90
15359;DHT22;7779;49.596;11.070;2024-01-11T09:36:08;-4.00;59.90
15359;DHT22;7779;49.596;11.070;2024-01-11T09:38:33;-3.90;59.80
15359;DHT22;7779;49.596;11.070;2024-01-11T09:41:11;-3.70;60.10
15359;DHT22;7779;49.596;11.070;2024-01-11T09:43:40;-3.60;60.40
15359;DHT22;7779;49.596;11.070;2024-01-11T09:46:07;-3.40;60.40
15359;DHT22;7779;49.596;11.070;2024-01-11T09:48:36;-3.30;60.30
15359;DHT22;7779;49.596;11.070;2024-01-11T09:51:06;-3.10;60.30
15359;DHT22;7779;49.596;11.070;2024-01-11T09:53:36;-3.00;60.20
15359;DHT22;7779;49.596;11.070;2024-01-11T09:56:08;-2.80;60.10
15359;DHT22;7779;49.596;11.070;2024-01-11T09:58:35;-2.70;60.10
15359;DHT22;7779;49.596;11.070;2024-01-11T10:01:09;-2.50;60.10
15359;DHT22;7779;49.596;11.070;2024-01-11T10:03:39;-2.40;60.00
15359;DHT22;7779;49.596;11.070;2024-01-11T10:06:07;-2.30;59.80
15359;DHT22;7779;49.596;11.070;2024-01-11T10:08:35;-2.20;59.60
15359;DHT22;7779;49.596;11.070;2024-01-11T10:11:02;-2.10;59.60
15359;DHT22;7779;49.596;11.070;2024-01-11T10:13:31;-2.00;59.50
15359;DHT22;7779;49.596;11.070;2024-01-11T10:16:16;-1.90;59.40
15359;DHT22;7779;49.596;11.070;2024-01-11T10:18:42;-1.80;59.60
15359;DHT22;7779;49.596;11.070;2024-01-11T10:21:08;-1.70;60.20
15359;DHT22;7779;49.596;11.070;2024-01-11T10:23:36;-1.60;59.70
15359;DHT22;7779;49.596;11.070;2024-01-11T10:26:02;-1.50;59.50
15359;DHT22;7779;49.596;11.070;2024-01-11T10:28:28;-1.40;59.40
15359;DHT22;7779;49.596;11.070;2024-01-11T10:30:54;-1.30;59.40
15359;DHT22;7779;49.596;11.070;2024-01-11T10:33:21;-1.20;59.30
15359;DHT22;7779;49.596;11.070;2024-01-11T10:35:48;-1.20;59.10
15359;DHT22;7779;49.596;11.070;2024-01-11T10:38:15;-1.10;58.80
15359;DHT22;7779;49.596;11.070;2024-01-11T10:40:42;-1.00;59.20
15359;DHT22;7779;49.596;11.070;2024-01-11T10:43:10;-0.90;59.10
15359;DHT22;7779;49.596;11.070;2024-01-11T10:45:37;-0.90;59.00
15359;DHT22;7779;49.596;11.070;2024-01-11T10:48:13;-0.80;58.90
15359;DHT22;7779;49.596;11.070;2024-01-11T10:50:44;-0.70;58.90
15359;DHT22;7779;49.596;11.070;2024-01-11T10:53:25;-0.70;58.80
15359;DHT22;7779;49.596;11.070;2024-01-11T10:55:53;-0.60;58.80
15359;DHT22;7779;49.596;11.070;2024-01-11T10:58:22;-0.60;58.70
15359;DHT22;7779;49.596;11.070;2024-01-11T11:00:51;-0.50;58.80
15359;DHT22;7779;49.596;11.070;2024-01-11T11:03:20;-0.40;58.80
15359;DHT22;7779;49.596;11.070;2024-01-11T11:05:49;-0.30;58.70
15359;DHT22;7779;49.596;11.070;2024-01-11T11:08:18;-0.30;58.70
15359;DHT22;7779;49.596;11.070;2024-01-11T11:10:45;-0.20;58.70
15359;DHT22;7779;49.596;11.070;2024-01-11T11:13:14;-0.10;58.70
15359;DHT22;7779;49.596;11.070;2024-01-11T11:15:44;0.00;58.70
15359;DHT22;7779;49.596;11.070;2024-01-11T11:18:15;0.00;58.60
15359;DHT22;7779;49.596;11.070;2024-01-11T11:20:42;0.10;58.60
15359;DHT22;7779;49.596;11.070;2024-01-11T11:23:10;0.20;58.60
15359;DHT22;7779;49.596;11.070;2024-01-11T11:25:36;0.30;58.60
15359;DHT22;7779;49.596;11.070;2024-01-11T11:28:04;0.30;58.40
15359;DHT22;7779;49.596;11.070;2024-01-11T11:30:31;0.40;58.40
15359;DHT22;7779;49.596;11.070;2024-01-11T11:32:57;0.50;58.40
15359;DHT22;7779;49.596;11.070;2024-01-11T11:35:26;0.50;58.30
15359;DHT22;7779;49.596;11.070;2024-01-11T11:37:58;0.50;58.10
15359;DHT22;7779;49.596;11.070;2024-01-11T11:40:37;0.70;58.20
15359;DHT22;7779;49.596;11.070;2024-01-11T11:43:08;0.70;58.00
15359;DHT22;7779;49.596;11.070;2024-01-11T11:45:35;0.80;58.10
15359;DHT22;7779;49.596;11.070;2024-01-11T11:51:15;0.90;57.60
15359;DHT22;7779;49.596;11.070;2024-01-11T11:53:41;1.00;57.70
15359;DHT22;7779;49.596;11.070;2024-01-11T11:56:09;1.00;57.80
15359;DHT22;7779;49.596;11.070;2024-01-11T11:58:36;1.10;57.90
15359;DHT22;7779;49.596;11.070;2024-01-11T12:01:03;1.10;57.80
15359;DHT22;7779;49.596;11.070;2024-01-11T12:03:41;1.20;57.90
15359;DHT22;7779;49.596;11.070;2024-01-11T12:06:10;1.20;57.70
15359;DHT22;7779;49.596;11.070;2024-01-11T12:08:37;1.20;57.70
15359;DHT22;7779;49.596;11.070;2024-01-11T12:11:08;1.30;57.90
15359;DHT22;7779;49.596;11.070;2024-01-11T12:13:34;1.30;58.30
15359;DHT22;7779;49.596;11.070;2024-01-11T12:16:01;1.30;57.40
15359;DHT22;7779;49.596;11.070;2024-01-11T12:18:27;1.40;57.30
15359;DHT22;7779;49.596;11.070;2024-01-11T12:20:53;1.40;57.20
15359;DHT22;7779;49.596;11.070;2024-01-11T12:23:19;1.40;57.30
15359;DHT22;7779;49.596;11.070;2024-01-11T12:25:45;1.50;57.60
15359;DHT22;7779;49.596;11.070;2024-01-11T12:28:11;1.50;57.30
15359;DHT22;7779;49.596;11.070;2024-01-11T12:30:38;1.50;57.30
15359;DHT22;7779;49.596;11.070;2024-01-11T12:33:04;1.50;57.20
15359;DHT22;7779;49.596;11.070;2024-01-11T12:35:31;1.60;57.30
15359;DHT22;7779;49.596;11.070;2024-01-11T12:38:04;1.60;57.90
15359;DHT22;7779;49.596;11.070;2024-01-11T12:40:38;1.60;57.30
15359;DHT22;7779;49.596;11.070;2024-01-11T12:43:04;1.70;57.30
15359;DHT22;7779;49.596;11.070;2024-01-11T12:45:37;1.70;57.30
15359;DHT22;7779;49.596;11.070;2024-01-11T12:48:06;1.70;57.10
15359;DHT22;7779;49.596;11.070;2024-01-11T12:50:35;1.80;57.20
15359;DHT22;7779;49.596;11.070;2024-01-11T12:53:13;1.80;57.00
15359;DHT22;7779;49.596;11.070;2024-01-11T12:55:46;1.80;56.70
15359;DHT22;7779;49.596;11.070;2024-01-11T12:58:19;1.90;57.00
15359;DHT22;7779;49.596;11.070;2024-01-11T13:00:48;1.90;56.80
15359;DHT22;7779;49.596;11.070;2024-01-11T13:03:14;2.00;57.10
15359;DHT22;7779;49.596;11.070;2024-01-11T13:05:40;2.00;57.00
15359;DHT22;7779;49.596;11.070;2024-01-11T13:08:10;2.00;56.80
15359;DHT22;7779;49.596;11.070;2024-01-11T13:10:37;2.00;56.80
15359;DHT22;7779;49.596;11.070;2024-01-11T13:13:04;2.10;56.90
15359;DHT22;7779;49.596;11.070;2024-01-11T13:15:31;2.10;57.00
15359;DHT22;7779;49.596;11.070;2024-01-11T13:17:58;2.10;57.00
15359;DHT22;7779;49.596;11.070;2024-01-11T13:20:24;2.20;56.80
15359;DHT22;7779;49.596;11.070;2024-01-11T13:23:10;2.20;56.80
15359;DHT22;7779;49.596;11.070;2024-01-11T13:25:40;2.20;56.70
15359;DHT22;7779;49.596;11.070;2024-01-11T13:28:06;2.30;56.80
15359;DHT22;7779;49.596;11.070;2024-01-11T13:30:32;2.30;56.60
15359;DHT22;7779;49.596;11.070;2024-01-11T13:32:58;2.30;56.50
15359;DHT22;7779;49.596;11.070;2024-01-11T13:35:24;2.30;56.40
15359;DHT22;7779;49.596;11.070;2024-01-11T13:37:50;2.30;56.50
15359;DHT22;7779;49.596;11.070;2024-01-11T13:40:16;2.40;56.50
15359;DHT22;7779;49.596;11.070;2024-01-11T13:42:42;2.40;56.40
15359;DHT22;7779;49.596;11.070;2024-01-11T13:45:09;2.40;56.40
15359;DHT22;7779;49.596;11.070;2024-01-11T13:47:35;2.50;56.50
15359;DHT22;7779;49.596;11.070;2024-01-11T13:50:01;2.50;56.40
15359;DHT22;7779;49.596;11.070;2024-01-11T13:52:27;2.50;56.40
15359;DHT22;7779;49.596;11.070;2024-01-11T13:54:52;2.60;56.40
15359;DHT22;7779;49.596;11.070;2024-01-11T13:57:18;2.60;56.40
15359;DHT22;7779;49.596;11.070;2024-01-11T13:59:44;2.60;56.40
15359;DHT22;7779;49.596;11.070;2024-01-11T14:02:09;2.60;56.30
15359;DHT22;7779;49.596;11.070;2024-01-11T14:04:35;2.60;56.20
15359;DHT22;7779;49.596;11.070;2024-01-11T14:07:01;2.60;56.10
15359;DHT22;7779;49.596;11.070;2024-01-11T14:09:29;2.60;56.20
15359;DHT22;7779;49.596;11.070;2024-01-11T14:11:55;2.70;56.30
15359;DHT22;7779;49.596;11.070;2024-01-11T14:14:21;2.70;56.20
15359;DHT22;7779;49.596;11.070;2024-01-11T14:16:47;2.70;56.10
15359;DHT22;7779;49.596;11.070;2024-01-11T14:19:13;2.70;56.10
15359;DHT22;7779;49.596;11.070;2024-01-11T14:21:39;2.80;56.20
15359;DHT22;7779;49.596;11.070;2024-01-11T14:24:05;2.80;56.20
15359;DHT22;7779;49.596;11.070;2024-01-11T14:26:32;2.80;56.00
15359;DHT22;7779;49.596;11.070;2024-01-11T14:28:58;2.80;55.90
15359;DHT22;7779;49.596;11.070;2024-01-11T14:31:24;2.80;55.80
15359;DHT22;7779;49.596;11.070;2024-01-11T14:33:50;2.80;55.70
15359;DHT22;7779;49.596;11.070;2024-01-11T14:36:16;2.80;55.60
15359;DHT22;7779;49.596;11.070;2024-01-11T14:38:44;2.80;55.50
15359;DHT22;7779;49.596;11.070;2024-01-11T14:41:10;2.80;55.50
15359;DHT22;7779;49.596;11.070;2024-01-11T14:43:36;2.80;55.50
15359;DHT22;7779;49.596;11.070;2024-01-11T14:46:02;2.80;55.40
15359;DHT22;7779;49.596;11.070;2024-01-11T14:48:27;2.70;55.40
15359;DHT22;7779;49.596;11.070;2024-01-11T14:50:56;2.70;55.40
15359;DHT22;7779;49.596;11.070;2024-01-11T14:53:22;2.60;55.30
15359;DHT22;7779;49.596;11.070;2024-01-11T14:55:49;2.60;55.30
15359;DHT22;7779;49.596;11.070;2024-01-11T14:58:15;2.60;55.30
15359;DHT22;7779;49.596;11.070;2024-01-11T15:00:42;2.50;55.20
15359;DHT22;7779;49.596;11.070;2024-01-11T15:03:08;2.50;55.20
15359;DHT22;7779;49.596;11.070;2024-01-11T15:05:33;2.50;55.20
15359;DHT22;7779;49.596;11.070;2024-01-11T15:07:59;2.40;55.10
15359;DHT22;7779;49.596;11.070;2024-01-11T15:10:25;2.40;55.20
15359;DHT22;7779;49.596;11.070;2024-01-11T15:12:51;2.40;55.20
15359;DHT22;7779;49.596;11.070;2024-01-11T15:15:17;2.30;55.20
15359;DHT22;7779;49.596;11.070;2024-01-11T15:17:44;2.20;55.10
15359;DHT22;7779;49.596;11.070;2024-01-11T15:20:10;2.20;55.20
15359;DHT22;7779;49.596;11.070;2024-01-11T15:22:36;2.20;55.20
15359;DHT22;7779;49.596;11.070;2024-01-11T15:25:02;2.10;55.10
15359;DHT22;7779;49.596;11.070;2024-01-11T15:27:28;2.00;54.20
15359;DHT22;7779;49.596;11.070;2024-01-11T15:29:53;2.00;55.10
15359;DHT22;7779;49.596;11.070;2024-01-11T15:32:19;1.90;55.00
15359;DHT22;7779;49.596;11.070;2024-01-11T15:34:45;1.90;55.10